createdAt,value
2023-01-07T00:01:40.165Z,18.05
2023-01-07T00:04:08.129Z,13.57
2023-01-07T00:06:36.881Z,15.68
2023-01-07T00:09:04.582Z,15.80
2023-01-07T00:11:33.814Z,13.82
2023-01-07T00:14:01.092Z,11.25
2023-01-07T00:16:29.933Z,14.55
2023-01-07T00:18:57.751Z,11.88
2023-01-07T00:21:25.383Z,14.13
2023-01-07T00:23:59.838Z,14.18
2023-01-07T00:26:29.354Z,14.75
2023-01-07T00:28:56.143Z,14.75
2023-01-07T00:31:24.959Z,13.93
2023-01-07T00:34:06.755Z,14.82
2023-01-07T00:36:44.633Z,12.13
2023-01-07T00:39:16.685Z,14.63
2023-01-07T00:42:06.644Z,13.85
2023-01-07T00:44:33.631Z,11.57
2023-01-07T00:47:00.987Z,12.98
2023-01-07T00:49:27.788Z,14.15
2023-01-07T00:51:54.837Z,12.43
2023-01-07T00:54:21.564Z,13.35
2023-01-07T00:56:48.653Z,13.18
2023-01-07T00:59:15.399Z,10.85
2023-01-07T01:01:43.014Z,14.73
2023-01-07T01:04:09.807Z,13.93
2023-01-07T01:06:36.906Z,12.75
2023-01-07T01:09:03.813Z,12.40
2023-01-07T01:11:31.181Z,12.98
2023-01-07T01:13:57.895Z,14.57
2023-01-07T01:16:25.021Z,11.98
2023-01-07T01:18:51.892Z,13.40
2023-01-07T01:21:19.269Z,12.30
2023-01-07T01:23:46.208Z,12.35
2023-01-07T01:26:15.131Z,14.88
2023-01-07T01:28:42.157Z,13.40
2023-01-07T01:31:09.401Z,10.43
2023-01-07T01:33:36.301Z,13.25
2023-01-07T01:36:05.307Z,12.38
2023-01-07T01:38:32.064Z,13.32
2023-01-07T01:45:22.148Z,10.13
2023-01-07T01:47:56.877Z,12.07
2023-01-07T01:50:27.977Z,12.75
2023-01-07T01:53:03.609Z,11.90
2023-01-07T01:55:37.771Z,12.82
2023-01-07T01:58:26.030Z,11.73
2023-01-07T02:00:53.189Z,11.50
2023-01-07T02:03:20.397Z,11.70
2023-01-07T02:05:47.472Z,10.43
2023-01-07T02:08:21.918Z,11.88
2023-01-07T02:10:54.912Z,10.35
2023-01-07T02:13:43.369Z,11.27
2023-01-07T02:16:32.696Z,11.05
2023-01-07T02:18:59.630Z,12.18
2023-01-07T02:21:54.315Z,12.52
2023-01-07T02:24:27.120Z,12.60
2023-01-07T02:26:54.149Z,12.95
2023-01-07T02:29:36.164Z,12.68
2023-01-07T02:32:06.320Z,12.82
2023-01-07T02:34:33.065Z,12.95
2023-01-07T02:37:10.422Z,11.60
2023-01-07T02:39:58.358Z,13.85
2023-01-07T02:42:39.924Z,13.77
2023-01-07T02:45:21.129Z,12.27
2023-01-07T02:47:52.400Z,12.73
2023-01-07T02:50:19.259Z,13.02
2023-01-07T02:52:46.508Z,12.85
2023-01-07T02:55:21.749Z,11.85
2023-01-07T02:58:13.087Z,11.35
2023-01-07T03:00:42.852Z,13.10
2023-01-07T03:03:25.783Z,12.55
2023-01-07T03:06:21.934Z,13.05
2023-01-07T03:08:54.955Z,13.60
2023-01-07T03:11:21.697Z,13.45
2023-01-07T03:14:09.730Z,11.07
2023-01-07T03:16:40.569Z,12.77
2023-01-07T03:19:11.203Z,11.73
2023-01-07T03:21:37.963Z,12.00
2023-01-07T03:24:06.243Z,10.18
2023-01-07T03:26:35.345Z,12.40
2023-01-07T03:29:03.003Z,11.15
2023-01-07T03:31:29.971Z,11.88
2023-01-07T03:33:59.837Z,10.50
2023-01-07T03:36:30.578Z,12.50
2023-01-07T03:38:57.692Z,11.85
2023-01-07T03:41:43.057Z,11.27
2023-01-07T03:44:10.075Z,12.05
2023-01-07T03:46:36.815Z,13.77
2023-01-07T03:49:04.119Z,14.02
2023-01-07T03:51:30.871Z,11.60
2023-01-07T03:53:57.943Z,12.85
2023-01-07T03:56:24.729Z,15.18
2023-01-07T03:58:51.778Z,12.35
2023-01-07T04:01:18.646Z,11.93
2023-01-07T04:03:45.715Z,9.43
2023-01-07T04:06:12.572Z,11.88
2023-01-07T04:08:39.660Z,15.07
2023-01-07T04:11:06.419Z,12.80
2023-01-07T04:13:33.511Z,11.77
2023-01-07T04:16:00.258Z,13.32
2023-01-07T04:18:27.271Z,10.93
2023-01-07T04:20:53.998Z,14.32
2023-01-07T04:23:21.019Z,11.02
2023-01-07T04:25:48.501Z,11.82
2023-01-07T04:28:15.727Z,14.38
2023-01-07T04:30:42.569Z,12.00
2023-01-07T04:33:09.768Z,13.20
2023-01-07T04:35:36.570Z,12.60
2023-01-07T04:38:03.620Z,12.68
2023-01-07T04:40:30.413Z,14.55
2023-01-07T04:42:57.432Z,12.63
2023-01-07T04:45:24.157Z,14.10
2023-01-07T04:47:56.434Z,14.80
2023-01-07T04:50:23.811Z,16.95
2023-01-07T04:52:50.879Z,16.17
2023-01-07T04:55:17.743Z,20.80
2023-01-07T04:57:44.835Z,18.10
2023-01-07T05:00:11.953Z,19.17
2023-01-07T05:02:39.017Z,17.25
2023-01-07T05:05:06.075Z,20.35
2023-01-07T05:07:33.181Z,18.52
2023-01-07T05:09:59.942Z,18.05
2023-01-07T05:12:27.019Z,20.38
2023-01-07T05:14:53.753Z,22.02
2023-01-07T05:17:21.409Z,17.90
2023-01-07T05:19:48.214Z,20.83
2023-01-07T05:22:15.255Z,20.83
2023-01-07T05:24:41.961Z,22.98
2023-01-07T05:27:09.033Z,23.67
2023-01-07T05:29:35.791Z,18.40
2023-01-07T05:32:03.005Z,23.60
2023-01-07T05:34:29.810Z,20.90
2023-01-07T05:36:56.898Z,22.23
2023-01-07T05:39:23.733Z,22.20
2023-01-07T05:41:50.776Z,19.50
2023-01-07T05:44:17.537Z,23.27
2023-01-07T05:46:44.665Z,20.92
2023-01-07T05:49:11.431Z,23.20
2023-01-07T05:51:38.498Z,23.65
2023-01-07T05:54:05.274Z,21.83
2023-01-07T05:56:32.427Z,20.25
2023-01-07T05:58:59.170Z,25.77
2023-01-07T06:01:27.124Z,24.27
2023-01-07T06:03:53.938Z,22.98
2023-01-07T06:06:21.014Z,30.88
2023-01-07T06:08:47.755Z,24.88
2023-01-07T06:11:14.814Z,26.88
2023-01-07T06:13:41.593Z,24.63
2023-01-07T06:16:09.415Z,28.02
2023-01-07T06:18:36.311Z,24.65
2023-01-07T06:21:03.559Z,25.75
2023-01-07T06:23:31.394Z,26.63
2023-01-07T06:25:58.481Z,28.95
2023-01-07T06:28:25.249Z,25.98
2023-01-07T06:30:52.461Z,25.75
2023-01-07T06:33:19.333Z,25.83
2023-01-07T06:35:46.648Z,25.60
2023-01-07T06:38:13.378Z,25.15
2023-01-07T06:40:40.432Z,24.88
2023-01-07T06:43:07.169Z,30.52
2023-01-07T06:45:34.187Z,30.88
2023-01-07T06:48:00.979Z,30.58
2023-01-07T06:50:28.005Z,35.40
2023-01-07T06:52:54.803Z,31.45
2023-01-07T06:55:21.825Z,30.02
2023-01-07T06:57:48.604Z,29.08
2023-01-07T07:00:15.825Z,32.88
2023-01-07T07:02:42.649Z,29.63
2023-01-07T07:05:10.876Z,31.75
2023-01-07T07:07:37.608Z,32.20
2023-01-07T07:10:07.547Z,29.63
2023-01-07T07:12:35.319Z,33.55
2023-01-07T07:15:02.417Z,33.80
2023-01-07T07:17:29.238Z,35.53
2023-01-07T07:19:56.317Z,33.38
2023-01-07T07:22:23.067Z,35.90
2023-01-07T07:24:50.099Z,36.78
2023-01-07T07:27:18.011Z,34.88
2023-01-07T07:29:45.086Z,37.88
2023-01-07T07:32:11.909Z,41.58
2023-01-07T07:34:39.093Z,35.20
2023-01-07T07:37:05.855Z,40.83
2023-01-07T07:39:33.750Z,44.58
2023-01-07T07:42:04.464Z,42.55
2023-01-07T07:44:31.580Z,45.35
2023-01-07T07:46:58.371Z,44.60
2023-01-07T07:49:25.445Z,50.53
2023-01-07T07:51:52.314Z,47.92
2023-01-07T07:54:19.408Z,50.28
2023-01-07T07:56:46.176Z,58.00
2023-01-07T07:59:13.204Z,55.30
2023-01-07T08:01:40.100Z,55.22
2023-01-07T08:04:07.347Z,62.38
2023-01-07T08:06:34.370Z,57.15
2023-01-07T08:09:01.508Z,61.05
2023-01-07T08:11:28.255Z,56.88
2023-01-07T08:13:55.344Z,58.25
2023-01-07T08:16:22.317Z,58.42
2023-01-07T08:18:49.467Z,58.03
2023-01-07T08:21:16.264Z,57.13
2023-01-07T08:23:43.463Z,56.80
2023-01-07T08:26:10.231Z,49.75
2023-01-07T08:28:37.696Z,49.05
2023-01-07T08:31:05.354Z,52.42
2023-01-07T08:33:37.590Z,53.17
2023-01-07T08:36:09.400Z,49.42
2023-01-07T08:38:39.172Z,50.33
2023-01-07T08:41:05.934Z,49.72
2023-01-07T08:43:33.538Z,54.63
2023-01-07T08:46:00.259Z,45.97
2023-01-07T08:48:27.351Z,47.38
2023-01-07T08:50:54.349Z,48.70
2023-01-07T08:53:22.071Z,44.08
2023-01-07T08:55:49.278Z,44.83
2023-01-07T08:58:16.357Z,45.50
2023-01-07T09:00:43.132Z,47.00
2023-01-07T09:03:10.287Z,42.67
2023-01-07T09:05:37.045Z,42.25
2023-01-07T09:08:04.396Z,42.83
2023-01-07T09:10:31.188Z,45.40
2023-01-07T09:12:58.349Z,43.53
2023-01-07T09:15:25.192Z,46.03
2023-01-07T09:17:52.315Z,46.83
2023-01-07T09:20:19.331Z,51.35
2023-01-07T09:22:46.504Z,47.47
2023-01-07T09:25:13.341Z,54.83
2023-01-07T09:27:40.679Z,48.53
2023-01-07T09:30:09.457Z,53.05
2023-01-07T09:32:36.701Z,49.47
2023-01-07T09:35:04.712Z,55.45
2023-01-07T09:37:31.963Z,44.47
2023-01-07T09:40:00.394Z,44.03
2023-01-07T09:42:45.976Z,47.05
2023-01-07T09:45:23.735Z,46.15
2023-01-07T09:47:53.386Z,44.03
2023-01-07T09:50:38.555Z,44.95
2023-01-07T09:53:17.917Z,42.70
2023-01-07T09:56:11.030Z,42.25
2023-01-07T09:58:31.734Z,44.05
2023-01-07T10:01:04.614Z,41.53
2023-01-07T10:03:40.880Z,41.88
2023-01-07T10:06:42.304Z,40.30
2023-01-07T10:09:48.214Z,41.45
2023-01-07T10:12:31.492Z,36.75
2023-01-07T10:15:01.912Z,37.20
2023-01-07T10:17:43.993Z,37.35
2023-01-07T10:20:50.130Z,34.83
2023-01-07T10:23:21.714Z,39.25
2023-01-07T10:25:50.476Z,31.55
2023-01-07T10:28:41.156Z,34.88
2023-01-07T10:31:17.825Z,32.33
2023-01-07T10:33:44.603Z,30.13
2023-01-07T10:36:28.920Z,32.42
2023-01-07T10:39:10.865Z,32.70
2023-01-07T10:41:50.603Z,32.67
2023-01-07T10:44:37.634Z,31.02
2023-01-07T10:47:32.299Z,34.42
2023-01-07T10:50:23.958Z,36.03
2023-01-07T10:53:24.999Z,33.72
2023-01-07T10:56:05.014Z,32.05
2023-01-07T10:58:39.832Z,36.55
2023-01-07T11:01:07.569Z,37.58
2023-01-07T11:03:34.806Z,34.40
2023-01-07T11:06:04.935Z,34.42
2023-01-07T11:08:42.320Z,38.25
2023-01-07T11:11:19.594Z,27.45
2023-01-07T11:14:10.018Z,31.58
2023-01-07T11:16:39.729Z,32.38
2023-01-07T11:19:08.193Z,26.55
2023-01-07T11:21:44.694Z,25.95
2023-01-07T11:24:34.651Z,25.58
2023-01-07T11:27:10.697Z,27.08
2023-01-07T11:29:41.594Z,26.33
2023-01-07T11:32:20.745Z,22.60
2023-01-07T11:35:01.884Z,26.88
2023-01-07T11:37:36.496Z,24.55
2023-01-07T11:40:18.259Z,22.45
2023-01-07T11:42:48.866Z,26.55
2023-01-07T11:45:22.075Z,27.10
2023-01-07T11:47:50.283Z,22.65
2023-01-07T11:50:41.122Z,27.85
2023-01-07T11:53:14.074Z,23.48
2023-01-07T11:56:02.555Z,24.20
2023-01-07T11:58:31.530Z,24.63
2023-01-07T12:01:08.045Z,24.63
2023-01-07T12:03:39.992Z,39.55
2023-01-07T12:06:11.667Z,47.00
2023-01-07T12:08:42.210Z,55.25
2023-01-07T12:11:10.493Z,52.90
2023-01-07T12:13:37.638Z,47.08
2023-01-07T12:16:05.918Z,58.97
2023-01-07T12:18:52.066Z,53.05
2023-01-07T12:21:22.179Z,45.75
2023-01-07T12:24:23.085Z,44.15
2023-01-07T12:26:53.069Z,42.15
2023-01-07T12:29:25.753Z,42.03
2023-01-07T12:32:28.162Z,38.35
2023-01-07T12:35:21.457Z,37.85
2023-01-07T12:37:48.602Z,39.25
2023-01-07T12:40:18.372Z,33.05
2023-01-07T12:42:50.927Z,35.67
2023-01-07T12:45:34.788Z,40.22
2023-01-07T12:48:04.476Z,46.05
2023-01-07T12:50:47.008Z,48.50
2023-01-07T12:53:40.752Z,59.22
2023-01-07T12:56:12.937Z,61.67
2023-01-07T12:58:45.339Z,64.93
2023-01-07T13:01:16.124Z,71.85
2023-01-07T13:03:50.683Z,83.45
2023-01-07T13:06:51.552Z,95.25
2023-01-07T13:09:29.586Z,86.72
2023-01-07T13:12:42.559Z,91.60
2023-01-07T13:15:33.699Z,115.32
2023-01-07T13:18:17.517Z,116.20
2023-01-07T13:20:56.850Z,115.68
2023-01-07T13:23:45.527Z,120.30
2023-01-07T13:26:25.998Z,125.00
2023-01-07T13:29:23.619Z,137.82
2023-01-07T13:32:02.840Z,126.47
2023-01-07T13:34:48.367Z,128.40
2023-01-07T13:37:43.009Z,126.63
2023-01-07T13:40:21.823Z,129.32
2023-01-07T13:42:55.648Z,121.53
2023-01-07T13:45:30.181Z,112.47
2023-01-07T13:47:58.947Z,124.90
2023-01-07T13:50:39.789Z,117.10
2023-01-07T13:53:27.714Z,107.75
2023-01-07T13:55:57.872Z,112.95
2023-01-07T13:58:31.122Z,113.93
2023-01-07T14:01:13.850Z,116.43
2023-01-07T14:03:56.277Z,104.28
2023-01-07T14:06:23.974Z,166.02
2023-01-07T14:08:55.230Z,164.27
2023-01-07T14:11:31.114Z,149.23
2023-01-07T14:14:17.785Z,150.32
2023-01-07T14:16:47.626Z,139.57
2023-01-07T14:19:26.880Z,133.73
2023-01-07T14:22:18.361Z,123.70
2023-01-07T14:24:57.858Z,122.30
2023-01-07T14:27:43.036Z,127.90
2023-01-07T14:30:27.304Z,144.25
2023-01-07T14:33:03.918Z,185.32
2023-01-07T14:35:39.649Z,196.75
2023-01-07T14:38:39.446Z,199.95
2023-01-07T14:41:13.354Z,178.90
2023-01-07T14:43:46.104Z,173.07
2023-01-07T14:46:22.420Z,173.35
2023-01-07T14:48:58.111Z,167.38
2023-01-07T14:52:01.156Z,161.90
2023-01-07T14:54:46.809Z,158.80
2023-01-07T14:57:37.144Z,154.18
2023-01-07T15:00:22.891Z,148.90
2023-01-07T15:02:53.226Z,150.70
2023-01-07T15:05:51.057Z,148.40
2023-01-07T15:08:38.421Z,146.05
2023-01-07T15:11:36.964Z,138.10
2023-01-07T15:14:23.935Z,140.93
2023-01-07T15:16:53.602Z,139.13
2023-01-07T15:19:22.040Z,131.38
2023-01-07T15:21:59.357Z,136.10
2023-01-07T15:24:41.805Z,135.68
2023-01-07T15:27:19.488Z,143.88
2023-01-07T15:30:03.937Z,155.27
2023-01-07T15:32:30.740Z,145.57
2023-01-07T15:34:58.120Z,152.57
2023-01-07T15:37:24.876Z,147.00
2023-01-07T15:39:56.461Z,157.63
2023-01-07T15:42:24.410Z,150.73
2023-01-07T15:44:55.943Z,145.25
2023-01-07T15:47:33.735Z,157.18
2023-01-07T15:50:25.024Z,148.73
2023-01-07T15:52:55.048Z,153.52
2023-01-07T15:55:27.640Z,143.75
2023-01-07T15:57:59.749Z,150.38
2023-01-07T16:00:26.858Z,159.75
2023-01-07T16:02:53.751Z,158.10
2023-01-07T16:05:21.039Z,151.60
2023-01-07T16:07:57.735Z,155.98
2023-01-07T16:10:30.049Z,160.75
2023-01-07T16:12:58.437Z,149.70
2023-01-07T16:15:36.223Z,158.90
2023-01-07T16:18:05.096Z,151.00
2023-01-07T16:20:34.915Z,152.30
2023-01-07T16:23:08.740Z,161.60
2023-01-07T16:26:06.375Z,165.93
2023-01-07T16:28:40.976Z,166.85
2023-01-07T16:31:10.907Z,166.80
2023-01-07T16:33:37.865Z,173.18
2023-01-07T16:36:07.290Z,183.82
2023-01-07T16:38:34.091Z,175.27
2023-01-07T16:41:01.222Z,181.75
2023-01-07T16:43:40.334Z,172.10
2023-01-07T16:46:09.491Z,174.70
2023-01-07T16:48:36.380Z,180.32
2023-01-07T16:51:03.514Z,180.85
2023-01-07T16:53:32.299Z,184.00
2023-01-07T16:56:02.507Z,185.27
2023-01-07T16:58:30.659Z,190.85
2023-01-07T17:00:59.844Z,183.52
2023-01-07T17:03:26.837Z,190.13
2023-01-07T17:05:58.790Z,195.80
2023-01-07T17:08:25.758Z,188.88
2023-01-07T17:10:57.968Z,199.18
2023-01-07T17:13:24.707Z,198.20
2023-01-07T17:15:51.821Z,187.95
2023-01-07T17:18:29.059Z,199.63
2023-01-07T17:20:56.176Z,188.02
2023-01-07T17:23:26.287Z,193.98
2023-01-07T17:26:16.821Z,193.60
2023-01-07T17:28:46.269Z,184.57
2023-01-07T17:31:13.391Z,197.02
2023-01-07T17:33:40.207Z,197.02
2023-01-07T17:36:25.414Z,194.85
2023-01-07T17:38:52.933Z,202.48
2023-01-07T17:41:40.099Z,193.77
2023-01-07T17:44:07.993Z,196.43
2023-01-07T17:47:17.810Z,197.02
2023-01-07T17:49:45.332Z,195.98
2023-01-07T17:52:12.453Z,196.25
2023-01-07T17:54:39.167Z,202.40
2023-01-07T17:57:06.204Z,196.38
2023-01-07T17:59:33.114Z,204.50
2023-01-07T18:02:00.688Z,203.80
2023-01-07T18:04:27.638Z,203.77
2023-01-07T18:06:54.718Z,200.73
2023-01-07T18:09:21.541Z,203.65
2023-01-07T18:12:20.995Z,192.60
2023-01-07T18:14:47.845Z,197.50
2023-01-07T18:17:14.901Z,195.95
2023-01-07T18:19:41.692Z,195.77
2023-01-07T18:22:08.842Z,189.48
2023-01-07T18:24:35.653Z,190.02
2023-01-07T18:27:02.707Z,197.23
2023-01-07T18:29:29.441Z,201.27
2023-01-07T18:31:56.605Z,205.75
2023-01-07T18:34:23.447Z,201.70
2023-01-07T18:36:50.572Z,204.68
2023-01-07T18:39:19.645Z,213.15
2023-01-07T18:41:48.834Z,221.75
2023-01-07T18:44:17.123Z,231.32
2023-01-07T18:46:44.231Z,238.50
2023-01-07T18:49:11.595Z,218.23
2023-01-07T18:51:38.661Z,230.82
2023-01-07T18:54:06.036Z,218.10
2023-01-07T18:56:33.101Z,221.23
2023-01-07T18:58:59.856Z,231.23
2023-01-07T19:01:27.030Z,217.40
2023-01-07T19:03:54.010Z,215.18
2023-01-07T19:06:21.135Z,227.95
2023-01-07T19:08:47.899Z,210.55
2023-01-07T19:11:15.127Z,222.13
2023-01-07T19:13:42.077Z,214.68
2023-01-07T19:16:12.656Z,216.60
2023-01-07T19:18:39.540Z,213.02
2023-01-07T19:21:08.361Z,208.82
2023-01-07T19:23:35.152Z,214.23
2023-01-07T19:26:03.781Z,216.75
2023-01-07T19:28:32.688Z,216.45
2023-01-07T19:30:59.808Z,201.88
2023-01-07T19:33:26.653Z,206.65
2023-01-07T19:36:03.952Z,198.82
2023-01-07T19:38:30.868Z,202.32
2023-01-07T19:40:58.100Z,202.07
2023-01-07T19:43:24.955Z,188.77
2023-01-07T19:45:55.968Z,205.50
2023-01-07T19:48:23.115Z,204.32
2023-01-07T19:50:54.867Z,199.82
2023-01-07T19:53:21.821Z,201.77
2023-01-07T19:55:48.952Z,203.93
2023-01-07T19:58:16.488Z,200.63
2023-01-07T20:00:43.936Z,190.98
2023-01-07T20:03:10.969Z,191.18
2023-01-07T20:05:38.438Z,189.45
2023-01-07T20:08:05.278Z,184.52
2023-01-07T20:10:32.387Z,181.00
2023-01-07T20:12:59.236Z,181.63
2023-01-07T20:15:26.441Z,170.05
2023-01-07T20:17:53.220Z,171.85
2023-01-07T20:20:20.374Z,181.43
2023-01-07T20:22:48.600Z,172.68
2023-01-07T20:25:15.763Z,166.65
2023-01-07T20:27:42.580Z,173.82
2023-01-07T20:30:11.028Z,165.45
2023-01-07T20:32:37.895Z,162.02
2023-01-07T20:35:05.480Z,158.82
2023-01-07T20:37:32.361Z,159.95
2023-01-07T20:39:59.493Z,164.40
2023-01-07T20:42:27.130Z,151.00
2023-01-07T20:44:54.269Z,161.80
2023-01-07T20:47:21.111Z,164.63
2023-01-07T20:49:48.237Z,153.98
2023-01-07T20:52:15.077Z,155.45
2023-01-07T20:54:42.184Z,147.32
2023-01-07T20:57:09.033Z,146.02
2023-01-07T20:59:36.209Z,147.18
2023-01-07T21:02:03.055Z,152.65
2023-01-07T21:04:30.465Z,149.80
2023-01-07T21:06:57.412Z,141.68
2023-01-07T21:09:24.552Z,146.10
2023-01-07T21:11:51.355Z,142.80
2023-01-07T21:14:18.540Z,148.25
2023-01-07T21:16:45.398Z,140.27
2023-01-07T21:19:12.603Z,140.00
2023-01-07T21:21:39.348Z,140.73
2023-01-07T21:24:06.804Z,144.10
2023-01-07T21:26:33.818Z,137.13
2023-01-07T21:29:00.910Z,137.60
2023-01-07T21:31:34.855Z,142.77
2023-01-07T21:34:01.977Z,139.68
2023-01-07T21:36:28.762Z,142.65
2023-01-07T21:38:57.462Z,134.18
2023-01-07T21:41:24.571Z,134.85
2023-01-07T21:43:51.688Z,138.23
2023-01-07T21:46:19.096Z,129.48
2023-01-07T21:48:47.194Z,140.00
2023-01-07T21:51:32.198Z,135.80
2023-01-07T21:53:59.373Z,132.75
2023-01-07T21:56:27.567Z,129.30
2023-01-07T21:58:54.694Z,127.03
2023-01-07T22:01:21.694Z,128.40
2023-01-07T22:03:49.480Z,126.55
2023-01-07T22:06:21.474Z,123.88
2023-01-07T22:08:48.855Z,126.88
2023-01-07T22:11:17.113Z,131.73
2023-01-07T22:13:44.188Z,125.70
2023-01-07T22:16:10.989Z,124.95
2023-01-07T22:18:38.149Z,120.75
2023-01-07T22:21:05.022Z,120.55
2023-01-07T22:23:32.081Z,122.25
2023-01-07T22:26:05.395Z,116.05
2023-01-07T22:28:33.542Z,115.18
2023-01-07T22:31:01.704Z,118.35
2023-01-07T22:33:28.807Z,114.95
2023-01-07T22:35:56.492Z,110.20
2023-01-07T22:38:23.631Z,114.05
2023-01-07T22:40:50.495Z,113.20
2023-01-07T22:43:18.043Z,108.82
2023-01-07T22:45:54.086Z,108.55
2023-01-07T22:48:23.959Z,108.20
2023-01-07T22:50:55.620Z,112.82
2023-01-07T22:53:22.744Z,111.15
2023-01-07T22:55:49.561Z,113.32
2023-01-07T22:58:17.086Z,106.72
2023-01-07T23:00:52.539Z,101.22
2023-01-07T23:03:20.277Z,109.45
2023-01-07T23:05:47.116Z,107.82
2023-01-07T23:08:14.198Z,98.78
2023-01-07T23:10:41.248Z,105.43
2023-01-07T23:13:08.424Z,105.72
2023-01-07T23:15:35.591Z,102.30
2023-01-07T23:18:03.215Z,99.47
2023-01-07T23:20:30.123Z,101.30
2023-01-07T23:22:57.209Z,101.10
2023-01-07T23:25:24.016Z,91.97
2023-01-07T23:27:51.157Z,97.15
2023-01-07T23:30:18.099Z,96.50
2023-01-07T23:32:45.344Z,100.25
2023-01-07T23:35:12.538Z,91.53
2023-01-07T23:37:39.722Z,94.07
2023-01-07T23:40:07.351Z,89.53
2023-01-07T23:42:34.704Z,92.80
2023-01-07T23:45:01.559Z,90.35
2023-01-07T23:47:28.669Z,87.85
2023-01-07T23:49:55.493Z,87.18
2023-01-07T23:52:22.530Z,84.00
2023-01-07T23:54:49.356Z,85.25
2023-01-07T23:57:16.536Z,82.55
2023-01-07T23:59:43.946Z,82.32
